Time;durP1;ratioP1;P1;durP2;ratioP2;P2;SDS_P1;SDS_P2;PMS_P1;PMS_P2;Temp;Humidity;BMP_temperature;BMP_pressure;BME280_temperature;BME280_humidity;BME280_pressure;Samples;Min_cycle;Max_cycle;Signal;HPM_P1;HPM_P2
2021/08/23 05:02:49;;;;;;;37.40;13.40;;;16.00;91.40;;;;;;4896523;29;20416;-83
2021/08/23 05:05:15;;;;;;;38.47;15.32;;;16.10;91.70;;;;;;4897320;29;20033;-83
2021/08/23 05:07:40;;;;;;;39.80;14.43;;;16.20;91.50;;;;;;4897184;29;20510;-83
2021/08/23 05:10:06;;;;;;;40.35;14.88;;;16.30;91.60;;;;;;4898236;29;20080;-83
2021/08/23 05:12:32;;;;;;;36.97;14.60;;;16.40;91.50;;;;;;4897194;29;20084;-82
2021/08/23 05:14:58;;;;;;;41.10;15.13;;;16.50;91.40;;;;;;4897093;29;20036;-82
2021/08/23 05:17:25;;;;;;;38.85;15.00;;;16.60;91.40;;;;;;4898596;29;20028;-85
2021/08/23 05:19:52;;;;;;;33.17;13.68;;;16.70;91.40;;;;;;4897787;29;20047;-87
2021/08/23 05:22:18;;;;;;;39.88;15.10;;;16.80;91.40;;;;;;4882541;29;20039;-84
2021/08/23 05:24:43;;;;;;;31.85;12.73;;;16.90;91.40;;;;;;4897693;29;20041;-83
2021/08/23 05:27:12;;;;;;;23.98;10.98;;;17.00;91.30;;;;;;4898362;29;20040;-84
2021/08/23 05:29:43;;;;;;;28.45;12.82;;;17.10;91.20;;;;;;4899332;29;20032;-84
2021/08/23 05:32:09;;;;;;;26.58;11.07;;;17.20;91.00;;;;;;4897868;29;20050;-85
2021/08/23 05:34:35;;;;;;;27.65;11.63;;;17.20;90.70;;;;;;4898840;29;20539;-84
2021/08/23 05:37:00;;;;;;;25.73;11.23;;;17.20;90.80;;;;;;4897497;29;20031;-84
2021/08/23 05:39:26;;;;;;;25.17;11.20;;;17.10;90.40;;;;;;4880063;29;20040;-84
2021/08/23 05:41:52;;;;;;;22.48;11.00;;;17.10;90.30;;;;;;4909303;29;20462;-84
2021/08/23 05:44:17;;;;;;;24.70;11.35;;;17.10;90.30;;;;;;4899471;29;20393;-84
2021/08/23 05:46:49;;;;;;;23.85;11.18;;;17.10;90.50;;;;;;4896975;29;20028;-85
2021/08/23 05:49:18;;;;;;;25.33;11.45;;;17.20;90.70;;;;;;4898217;29;20512;-88
2021/08/23 05:52:04;;;;;;;28.35;12.88;;;17.20;90.70;;;;;;4884175;29;20028;-88
2021/08/23 05:54:40;;;;;;;26.58;11.65;;;17.20;90.80;;;;;;4893060;29;20036;-87
2021/08/23 05:57:06;;;;;;;25.20;11.70;;;17.30;90.90;;;;;;4899836;29;20039;-88
2021/08/23 05:59:32;;;;;;;22.67;11.25;;;17.30;90.90;;;;;;4899015;29;20039;-88
2021/08/23 06:02:48;;;;;;;22.95;11.85;;;17.50;91.00;;;;;;4882440;29;20052;-81
2021/08/23 06:05:14;;;;;;;26.88;11.73;;;17.60;91.10;;;;;;4824426;29;21302;-83
2021/08/23 06:22:53;;;;;;;;;;;;;;;;;;;;;
2021/08/23 06:26:06;;;;;;;;;;;;;;;;;;;;;
2021/08/23 06:29:14;;;;;;;;;;;;;;;;;;;;;
2021/08/23 06:35:10;;;;;;;;;;;;;;;;;;;;;
2021/08/23 06:41:40;;;;;;;18.00;9.75;;;18.30;90.30;;;;;;4882614;29;20025;-83
2021/08/23 07:06:18;;;;;;;19.52;10.13;;;18.70;90.80;;;;;;4741467;30;20028;-82
2021/08/23 07:09:24;;;;;;;19.77;10.10;;;18.80;90.50;;;;;;4738329;30;20520;-82
2021/08/23 07:11:50;;;;;;;22.48;12.73;;;18.80;90.30;;;;;;4760754;30;20142;-82
2021/08/23 07:39:38;;;;;;;;;;;;;;;;;;;;;
2021/08/23 07:52:43;;;;;;;;;;;;;;;;;;;;;
2021/08/23 07:55:19;;;;;;;23.35;9.10;;;21.40;86.50;;;;;;4728497;30;19954;-85
2021/08/23 08:01:29;;;;;;;12.88;7.80;;;21.30;86.00;;;;;;4728348;30;20129;-85
2021/08/23 08:04:00;;;;;;;10.85;6.50;;;21.30;86.70;;;;;;4796220;29;20069;-85
2021/08/23 08:06:56;;;;;;;13.00;7.72;;;21.40;86.50;;;;;;4835626;29;20482;-85
2021/08/23 08:09:34;;;;;;;;;;;;;;;;;;;;;
2021/08/23 08:16:01;;;;;;;11.25;6.43;;;21.00;85.90;;;;;;4779479;29;20050;-85
2021/08/23 08:19:22;;;;;;;11.07;5.82;;;20.80;86.20;;;;;;4789644;29;20026;-85
2021/08/23 08:21:50;;;;;;;10.73;6.03;;;20.70;87.20;;;;;;4804115;29;20062;-86
2021/08/23 08:27:24;;;;;;;11.23;6.05;;;20.90;87.80;;;;;;4872843;29;20112;-85
2021/08/23 08:29:49;;;;;;;12.05;6.45;;;20.90;87.70;;;;;;4852486;29;20493;-86
2021/08/23 08:32:46;;;;;;;10.02;5.75;;;21.00;87.50;;;;;;4867323;29;20043;-85
2021/08/23 08:35:30;;;;;;;10.18;5.50;;;21.10;87.70;;;;;;4851178;29;20059;-85
2021/08/23 08:38:27;;;;;;;10.10;6.05;;;21.30;87.90;;;;;;4865615;29;20037;-84
2021/08/23 08:40:57;;;;;;;10.15;5.80;;;21.60;87.90;;;;;;4865984;29;20037;-86
2021/08/23 08:43:33;;;;;;;10.85;5.65;;;22.00;87.50;;;;;;4865593;29;20060;-85
2021/08/23 08:46:49;;;;;;;10.82;4.65;;;22.20;86.80;;;;;;4865767;29;20511;-86
2021/08/23 08:53:42;;;;;;;;;;;;;;;;;;;;;
2021/08/23 08:57:08;;;;;;;11.13;5.82;;;22.90;84.10;;;;;;4825570;29;20047;-85
2021/08/23 09:01:02;;;;;;;8.95;4.97;;;23.10;83.60;;;;;;4789726;29;20118;-85
2021/08/23 09:03:27;;;;;;;11.32;5.82;;;23.10;83.30;;;;;;4819431;29;20030;-85
2021/08/23 09:06:17;;;;;;;;;;;;;;;;;;;;;
2021/08/23 09:08:48;;;;;;;10.82;5.63;;;23.50;84.30;;;;;;4827765;29;20035;-85
2021/08/23 09:11:55;;;;;;;;;;;;;;;;;;;;;
2021/08/23 09:14:52;;;;;;;13.13;6.28;;;23.90;82.80;;;;;;4841314;29;20048;-85
2021/08/23 09:17:28;;;;;;;11.77;7.15;;;24.00;82.00;;;;;;4860490;29;20090;-85
2021/08/23 09:21:01;;;;;;;13.23;5.60;;;24.20;81.50;;;;;;4847864;29;20374;-85
2021/08/23 09:30:38;;;;;;;10.73;5.95;;;24.30;80.30;;;;;;4871229;29;20123;-84
2021/08/23 09:33:07;;;;;;;10.90;5.10;;;24.00;79.10;;;;;;4879398;29;20058;-84
2021/08/23 09:35:40;;;;;;;11.35;5.57;;;23.60;80.00;;;;;;4879866;29;20108;-84
2021/08/23 09:55:51;;;;;;;9.65;4.75;;;24.80;81.80;;;;;;5061021;23;20064;-82
2021/08/23 09:58:21;;;;;;;13.65;7.18;;;24.90;81.00;;;;;;4900437;29;20485;-84
2021/08/23 10:01:20;;;;;;;12.45;5.93;;;24.90;79.10;;;;;;4899426;29;20072;-84
2021/08/23 10:04:18;;;;;;;10.70;5.55;;;24.90;79.40;;;;;;4900472;29;20075;-84
2021/08/23 10:06:45;;;;;;;9.68;5.22;;;24.90;81.10;;;;;;4899683;29;20040;-84
2021/08/23 10:09:29;;;;;;;9.02;4.65;;;25.00;81.10;;;;;;4901060;29;20033;-84
2021/08/23 10:11:57;;;;;;;10.20;5.70;;;25.10;80.80;;;;;;4900741;29;20520;-84
2021/08/23 10:14:24;;;;;;;11.90;5.80;;;25.10;80.50;;;;;;4901552;29;20499;-83
2021/08/23 10:16:50;;;;;;;12.25;5.38;;;25.00;79.20;;;;;;4900350;29;20035;-84
2021/08/23 10:19:44;;;;;;;11.00;5.38;;;25.00;80.50;;;;;;4901297;29;20025;-85
2021/08/23 10:25:15;;;;;;;9.38;4.95;;;25.40;80.80;;;;;;4893032;29;20032;-84
2021/08/23 10:27:40;;;;;;;6.72;3.42;;;25.70;81.40;;;;;;4900964;29;20039;-85
2021/08/23 10:30:08;;;;;;;10.25;5.43;;;25.70;79.40;;;;;;4894854;29;20032;-82
2021/08/23 10:32:36;;;;;;;8.93;5.32;;;25.40;78.30;;;;;;4915288;29;20037;-82
2021/08/23 10:35:22;;;;;;;8.98;4.85;;;25.20;79.00;;;;;;4900909;29;20052;-82
2021/08/23 10:37:49;;;;;;;8.95;4.22;;;25.00;79.60;;;;;;4900841;29;20033;-82
2021/08/23 10:40:21;;;;;;;10.68;4.68;;;25.00;80.10;;;;;;4900955;29;20448;-81
2021/08/23 10:42:47;;;;;;;8.30;4.30;;;24.80;80.40;;;;;;4900689;29;20371;-82
2021/08/23 10:45:17;;;;;;;8.18;4.50;;;24.70;81.40;;;;;;4900861;29;20084;-81
2021/08/23 10:47:44;;;;;;;8.95;3.92;;;24.80;82.00;;;;;;4915213;29;20041;-83
2021/08/23 10:50:24;;;;;;;8.23;4.18;;;25.20;82.00;;;;;;4914121;29;20080;-85
2021/08/23 10:52:51;;;;;;;8.55;3.92;;;25.40;80.30;;;;;;4900658;29;20033;-83
2021/08/23 10:55:26;;;;;;;7.95;3.97;;;25.50;80.70;;;;;;4900470;29;20045;-83
2021/08/23 10:58:08;;;;;;;7.80;4.05;;;25.80;82.20;;;;;;4900630;29;20033;-83
2021/08/23 11:00:40;;;;;;;7.53;3.15;;;26.80;83.50;;;;;;4900551;29;20035;-83
2021/08/23 11:03:09;;;;;;;7.53;3.47;;;27.30;80.60;;;;;;4900532;29;20384;-83
2021/08/23 11:05:37;;;;;;;7.38;3.45;;;27.20;78.80;;;;;;4900366;29;20036;-83
2021/08/23 11:08:09;;;;;;;7.18;3.42;;;26.90;78.50;;;;;;4900322;29;20524;-84
2021/08/23 11:10:38;;;;;;;7.20;3.80;;;26.60;77.60;;;;;;4900338;29;20500;-84
2021/08/23 11:13:15;;;;;;;7.05;3.42;;;26.50;78.90;;;;;;4892258;29;20114;-83
2021/08/23 11:15:42;;;;;;;6.85;3.63;;;26.80;80.60;;;;;;4900166;29;20153;-82
2021/08/23 11:18:13;;;;;;;7.57;3.85;;;27.20;81.60;;;;;;4900015;29;20088;-82
2021/08/23 11:20:51;;;;;;;6.32;3.20;;;27.70;81.00;;;;;;4900048;29;20481;-83
2021/08/23 11:23:27;;;;;;;6.72;3.42;;;28.00;79.10;;;;;;4900099;29;20485;-84
2021/08/23 11:25:58;;;;;;;7.40;3.30;;;28.00;77.50;;;;;;4894508;29;20440;-82
2021/08/23 11:28:27;;;;;;;7.68;3.50;;;27.70;75.40;;;;;;4888304;29;20388;-83
2021/08/23 11:30:54;;;;;;;7.18;3.63;;;27.30;75.30;;;;;;4900316;29;20561;-83
2021/08/23 11:33:43;;;;;;;7.10;3.70;;;26.80;76.50;;;;;;4894835;29;20037;-82
2021/08/23 11:36:22;;;;;;;8.35;3.60;;;26.60;77.70;;;;;;4881184;29;20092;-82
2021/08/23 11:38:48;;;;;;;6.72;3.40;;;26.50;78.90;;;;;;4899853;29;20501;-81
2021/08/23 11:41:14;;;;;;;6.50;3.25;;;26.60;80.10;;;;;;4899605;29;20482;-81
2021/08/23 11:43:41;;;;;;;6.22;3.00;;;26.80;79.80;;;;;;4901526;29;20036;-82
2021/08/23 11:46:06;;;;;;;8.30;3.70;;;26.90;79.80;;;;;;4901566;29;20033;-83
2021/08/23 11:48:33;;;;;;;7.03;3.10;;;26.80;77.20;;;;;;4901753;29;20118;-83
2021/08/23 11:50:59;;;;;;;6.53;3.15;;;26.40;76.50;;;;;;4902059;29;20048;-82
2021/08/23 11:53:29;;;;;;;7.18;3.60;;;26.00;77.50;;;;;;4902020;29;20087;-81
2021/08/23 11:56:04;;;;;;;7.25;3.63;;;25.70;77.70;;;;;;4900779;29;20501;-82
2021/08/23 11:58:39;;;;;;;9.70;3.47;;;25.40;79.00;;;;;;4901764;29;20025;-83
2021/08/23 12:01:08;;;;;;;6.85;3.40;;;25.50;80.70;;;;;;4900565;29;20031;-82
2021/08/23 12:03:37;;;;;;;6.57;3.35;;;25.70;80.80;;;;;;4901908;29;20145;-82
2021/08/23 12:06:06;;;;;;;7.15;3.58;;;26.00;80.60;;;;;;4901643;29;20030;-82
2021/08/23 12:08:36;;;;;;;6.40;3.40;;;26.30;79.00;;;;;;4902284;29;20044;-82
2021/08/23 12:11:11;;;;;;;7.82;4.05;;;26.50;78.40;;;;;;4903297;29;20120;-84
2021/08/23 12:13:47;;;;;;;6.75;3.42;;;26.60;78.30;;;;;;4901023;29;20035;-85
2021/08/23 12:16:16;;;;;;;5.60;3.10;;;26.70;78.50;;;;;;4901255;29;20028;-84
2021/08/23 12:18:50;;;;;;;7.22;3.38;;;26.80;79.10;;;;;;4902962;29;20454;-85
2021/08/23 12:21:29;;;;;;;8.57;3.25;;;26.90;77.80;;;;;;4902549;29;20028;-85
2021/08/23 12:24:03;;;;;;;6.30;3.28;;;26.80;77.90;;;;;;4901679;29;20033;-85
2021/08/23 12:26:36;;;;;;;6.57;3.30;;;26.60;77.50;;;;;;4900523;29;20069;-84
2021/08/23 12:29:17;;;;;;;7.43;3.30;;;26.30;77.60;;;;;;4900503;29;20392;-85
2021/08/23 12:31:59;;;;;;;7.57;3.38;;;25.90;77.10;;;;;;4901352;29;20507;-84
2021/08/23 12:34:33;;;;;;;7.72;3.60;;;25.30;77.40;;;;;;4901836;29;20024;-87
2021/08/23 12:37:01;;;;;;;7.20;3.58;;;24.80;77.50;;;;;;4901772;29;20548;-84
2021/08/23 12:39:27;;;;;;;7.10;3.85;;;24.40;78.60;;;;;;4902113;29;20037;-87
2021/08/23 12:41:56;;;;;;;6.85;3.35;;;24.10;79.70;;;;;;4900256;29;20084;-84
2021/08/23 12:44:24;;;;;;;6.88;3.58;;;24.00;80.20;;;;;;4902056;29;20039;-85
2021/08/23 12:46:50;;;;;;;7.40;3.90;;;23.90;80.50;;;;;;4901581;29;20485;-85
2021/08/23 12:49:17;;;;;;;7.75;3.95;;;23.90;80.60;;;;;;4901085;29;20044;-85
2021/08/23 12:51:56;;;;;;;8.70;4.68;;;23.70;81.00;;;;;;4900930;29;20489;-83
2021/08/23 12:54:22;;;;;;;8.13;4.30;;;23.60;81.10;;;;;;4902108;29;20131;-84
2021/08/23 12:56:49;;;;;;;8.15;3.92;;;23.50;81.80;;;;;;4901451;29;20055;-84
2021/08/23 12:59:20;;;;;;;8.73;4.30;;;23.30;82.00;;;;;;4883898;29;20125;-84
2021/08/23 13:01:46;;;;;;;7.35;4.25;;;23.10;81.00;;;;;;4901312;29;20035;-83
2021/08/23 13:04:12;;;;;;;8.10;4.38;;;22.80;79.10;;;;;;4884187;29;20028;-83
2021/08/23 13:06:38;;;;;;;8.05;4.38;;;22.50;79.00;;;;;;4899384;29;20116;-83
2021/08/23 13:09:05;;;;;;;8.30;4.28;;;22.20;79.80;;;;;;4899799;29;20071;-84
2021/08/23 13:11:31;;;;;;;8.85;4.72;;;22.10;80.70;;;;;;4900460;29;20044;-84
2021/08/23 13:13:57;;;;;;;9.05;5.00;;;21.90;81.90;;;;;;4900365;29;20124;-84
2021/08/23 13:16:23;;;;;;;8.90;5.07;;;21.90;82.70;;;;;;4899224;29;20064;-84
2021/08/23 13:18:49;;;;;;;10.77;5.43;;;21.90;83.00;;;;;;4900012;29;20044;-85
2021/08/23 13:21:15;;;;;;;8.70;4.90;;;21.80;82.20;;;;;;4900277;29;20033;-84
2021/08/23 13:23:41;;;;;;;11.60;5.97;;;21.80;82.20;;;;;;4884804;29;20043;-86
2021/08/23 13:26:09;;;;;;;12.05;7.07;;;21.60;81.70;;;;;;4884409;29;20084;-85
2021/08/23 13:28:37;;;;;;;14.30;7.75;;;21.40;80.50;;;;;;4899432;29;20036;-85
2021/08/23 13:31:03;;;;;;;12.82;6.85;;;21.20;80.80;;;;;;4869458;29;20043;-86
2021/08/23 13:33:29;;;;;;;16.58;8.75;;;21.00;81.20;;;;;;4885014;29;20445;-88
2021/08/23 13:35:57;;;;;;;12.23;7.32;;;20.70;81.70;;;;;;4898877;29;20052;-89
2021/08/23 13:38:29;;;;;;;10.48;5.47;;;20.60;82.90;;;;;;4900140;29;20029;-87
2021/08/23 13:40:56;;;;;;;10.18;5.30;;;20.40;82.90;;;;;;4896862;29;20048;-88
2021/08/23 13:43:21;;;;;;;12.50;5.90;;;20.30;83.90;;;;;;4898857;29;20421;-86
2021/08/23 13:45:47;;;;;;;10.55;5.10;;;20.30;84.70;;;;;;4881768;29;20033;-86
2021/08/23 13:48:17;;;;;;;13.25;4.70;;;20.10;85.20;;;;;;4897540;29;20048;-87
2021/08/23 13:50:46;;;;;;;10.80;4.95;;;20.20;85.80;;;;;;4884701;29;20033;-84
2021/08/23 13:53:12;;;;;;;10.77;5.28;;;20.20;87.20;;;;;;4921028;29;20025;-84
2021/08/23 13:55:38;;;;;;;11.48;4.57;;;20.20;88.30;;;;;;4914763;29;20056;-85
2021/08/23 13:58:07;;;;;;;11.02;5.38;;;20.20;89.10;;;;;;4880146;29;20469;-84
2021/08/23 14:00:32;;;;;;;13.45;5.88;;;20.40;89.60;;;;;;4870277;29;20063;-87
2021/08/23 14:02:58;;;;;;;11.55;5.07;;;20.70;90.20;;;;;;4866405;29;20064;-84
2021/08/23 14:05:24;;;;;;;14.30;6.13;;;20.90;90.20;;;;;;4881250;29;20037;-85
2021/08/23 14:07:56;;;;;;;12.50;5.68;;;21.10;89.50;;;;;;4867589;29;20038;-85
2021/08/23 14:10:22;;;;;;;12.40;5.97;;;21.30;89.00;;;;;;4853382;29;20085;-86
2021/08/23 14:12:53;;;;;;;11.00;4.72;;;21.40;88.60;;;;;;4881336;29;20025;-85
2021/08/23 14:15:22;;;;;;;9.75;4.20;;;21.40;88.30;;;;;;4881483;29;20481;-84
2021/08/23 14:17:48;;;;;;;14.35;5.72;;;21.40;88.70;;;;;;4898485;29;20357;-84
2021/08/23 14:20:14;;;;;;;13.23;6.10;;;21.60;89.30;;;;;;4881641;29;20191;-86
2021/08/23 14:22:42;;;;;;;11.82;5.55;;;21.90;89.60;;;;;;4898790;29;20049;-84
2021/08/23 14:25:09;;;;;;;11.77;5.00;;;22.20;88.90;;;;;;4883811;29;20045;-84
2021/08/23 14:27:35;;;;;;;13.43;5.65;;;22.30;87.40;;;;;;4901397;29;20029;-83
2021/08/23 14:30:05;;;;;;;11.27;5.72;;;22.20;87.30;;;;;;4900998;29;20604;-83
2021/08/23 14:32:33;;;;;;;10.68;5.43;;;22.20;88.10;;;;;;4901182;29;20029;-83
2021/08/23 14:35:03;;;;;;;11.00;5.68;;;22.10;88.50;;;;;;4884542;29;20501;-83
2021/08/23 14:37:31;;;;;;;9.15;4.82;;;22.00;88.10;;;;;;4886925;29;20029;-87
2021/08/23 14:39:57;;;;;;;10.90;5.15;;;21.90;88.90;;;;;;4851491;29;20029;-87
2021/08/23 14:42:22;;;;;;;10.60;5.57;;;21.90;89.40;;;;;;4866356;29;20446;-86
2021/08/23 14:44:48;;;;;;;10.80;5.30;;;21.90;89.20;;;;;;4865901;29;20512;-84
2021/08/23 14:47:14;;;;;;;7.72;4.28;;;21.80;89.40;;;;;;4865404;29;20386;-83
2021/08/23 14:49:45;;;;;;;9.02;4.22;;;21.90;89.40;;;;;;4882333;29;20401;-82
2021/08/23 14:52:11;;;;;;;9.55;5.30;;;21.80;89.50;;;;;;4882320;29;20029;-83
2021/08/23 14:54:39;;;;;;;10.57;4.43;;;21.80;89.20;;;;;;4886529;29;20067;-82
2021/08/23 14:57:05;;;;;;;11.02;4.40;;;21.60;88.60;;;;;;4900866;29;20032;-83
2021/08/23 14:59:32;;;;;;;11.93;5.82;;;21.30;88.60;;;;;;4901037;29;20037;-84
2021/08/23 15:02:04;;;;;;;11.07;4.35;;;20.90;89.10;;;;;;4899496;29;20032;-86
2021/08/23 15:04:32;;;;;;;9.52;5.05;;;20.70;90.00;;;;;;4899894;29;20128;-85
2021/08/23 15:06:58;;;;;;;10.50;4.57;;;20.80;91.10;;;;;;4884616;29;20033;-84
2021/08/23 15:09:24;;;;;;;10.85;5.38;;;20.70;90.90;;;;;;4883815;29;20040;-84
2021/08/23 15:11:56;;;;;;;9.13;4.32;;;20.90;90.60;;;;;;4884323;29;20036;-83
2021/08/23 15:14:24;;;;;;;9.25;5.00;;;20.90;90.70;;;;;;4885769;29;20128;-81
2021/08/23 15:16:51;;;;;;;9.20;4.50;;;20.70;90.70;;;;;;4916891;29;20025;-83
2021/08/23 15:19:22;;;;;;;7.90;3.53;;;20.60;90.40;;;;;;4894591;29;20029;-82
2021/08/23 15:21:50;;;;;;;10.43;4.80;;;20.30;90.50;;;;;;4905422;29;20116;-82
2021/08/23 15:24:19;;;;;;;8.20;3.75;;;20.30;91.20;;;;;;4890539;29;20393;-82
2021/08/23 15:26:52;;;;;;;8.68;4.15;;;20.50;91.30;;;;;;4885002;29;20120;-84
2021/08/23 15:29:20;;;;;;;9.75;4.15;;;20.50;91.20;;;;;;4880544;29;20103;-85
2021/08/23 15:31:48;;;;;;;11.20;4.93;;;20.60;91.10;;;;;;4903150;29;20029;-86
2021/08/23 15:34:15;;;;;;;10.13;4.63;;;20.50;90.80;;;;;;4872185;29;20032;-85
2021/08/23 15:36:46;;;;;;;6.32;2.90;;;20.30;90.80;;;;;;4885664;29;20028;-84
2021/08/23 15:39:13;;;;;;;7.35;3.70;;;20.20;90.90;;;;;;4902731;29;20029;-84
2021/08/23 15:41:45;;;;;;;8.43;3.58;;;20.10;91.40;;;;;;4869512;29;20029;-85
2021/08/23 15:44:11;;;;;;;8.82;4.10;;;20.20;91.70;;;;;;4886642;29;20127;-86
2021/08/23 15:46:41;;;;;;;7.75;3.80;;;20.30;91.60;;;;;;4900386;29;20038;-86
2021/08/23 15:49:08;;;;;;;7.40;3.80;;;20.30;91.60;;;;;;4902967;29;20041;-86
2021/08/23 15:51:35;;;;;;;8.18;4.13;;;20.20;91.60;;;;;;4900348;29;20417;-85
2021/08/23 15:54:05;;;;;;;7.30;3.55;;;20.30;91.60;;;;;;4885953;29;20032;-86
2021/08/23 15:56:32;;;;;;;7.97;4.07;;;20.30;92.00;;;;;;4901203;29;20528;-86
2021/08/23 15:58:58;;;;;;;8.25;3.90;;;20.30;91.70;;;;;;4912432;29;20036;-86
2021/08/23 16:01:24;;;;;;;6.38;3.42;;;20.40;91.90;;;;;;4919779;29;20087;-86
2021/08/23 16:03:50;;;;;;;7.55;3.80;;;20.50;92.10;;;;;;4919426;29;20112;-84
2021/08/23 16:06:22;;;;;;;9.43;4.28;;;20.70;92.10;;;;;;4921544;29;20127;-82
2021/08/23 16:08:55;;;;;;;16.20;11.95;;;20.80;91.80;;;;;;4913619;29;20072;-84
2021/08/23 16:11:33;;;;;;;8.07;3.70;;;20.90;91.50;;;;;;4884932;29;20037;-79
2021/08/23 16:13:59;;;;;;;7.07;3.40;;;20.90;91.80;;;;;;4899265;29;20029;-81
2021/08/23 16:16:25;;;;;;;5.57;2.92;;;21.00;91.90;;;;;;4898883;29;20430;-81
2021/08/23 16:18:51;;;;;;;5.85;2.88;;;21.00;91.60;;;;;;4882494;29;20040;-81
2021/08/23 16:21:17;;;;;;;4.57;2.63;;;21.00;91.50;;;;;;4899397;29;20568;-83
2021/08/23 16:23:49;;;;;;;5.35;2.70;;;20.90;91.60;;;;;;4899311;29;20481;-82
2021/08/23 16:26:16;;;;;;;4.22;2.40;;;20.90;91.60;;;;;;4897671;29;20080;-82
2021/08/23 16:28:42;;;;;;;3.75;2.33;;;20.70;91.50;;;;;;4863476;29;20037;-82
2021/08/23 16:31:09;;;;;;;3.75;2.30;;;20.70;91.40;;;;;;4880212;29;20037;-83
2021/08/23 16:33:35;;;;;;;5.22;2.50;;;20.50;91.40;;;;;;4897241;29;20040;-83
2021/08/23 16:36:02;;;;;;;4.18;2.15;;;20.40;91.40;;;;;;4898870;29;20039;-83
2021/08/23 16:38:28;;;;;;;4.13;2.20;;;20.20;91.50;;;;;;4898563;29;20406;-83
2021/08/23 16:40:54;;;;;;;4.55;2.47;;;20.10;91.60;;;;;;4898716;29;20080;-82
2021/08/23 16:43:22;;;;;;;4.70;2.55;;;20.10;91.70;;;;;;4898841;29;20041;-81
2021/08/23 16:45:48;;;;;;;5.07;2.30;;;20.00;91.90;;;;;;4897816;29;20024;-82
2021/08/23 16:48:14;;;;;;;4.50;2.60;;;19.90;91.90;;;;;;4896911;29;20120;-82
2021/08/23 16:50:40;;;;;;;5.32;2.55;;;19.90;92.00;;;;;;4898353;29;20444;-82
2021/08/23 16:53:07;;;;;;;4.00;2.30;;;19.90;92.10;;;;;;4897206;29;20037;-83
2021/08/23 16:55:34;;;;;;;5.30;2.75;;;19.90;92.00;;;;;;4896840;29;20048;-82
2021/08/23 16:58:00;;;;;;;4.78;2.55;;;19.80;91.80;;;;;;4898265;29;20099;-83
2021/08/23 17:00:26;;;;;;;5.53;2.55;;;19.70;92.00;;;;;;4898377;29;20397;-83
2021/08/23 17:02:53;;;;;;;5.55;2.40;;;19.80;92.20;;;;;;4897210;29;20033;-83
2021/08/23 17:05:18;;;;;;;4.38;2.47;;;19.70;92.10;;;;;;4881857;29;20032;-83
2021/08/23 17:07:44;;;;;;;5.15;2.60;;;19.70;92.00;;;;;;4898353;29;20388;-82
2021/08/23 17:10:17;;;;;;;5.13;2.42;;;19.50;91.90;;;;;;4897230;29;20063;-83
2021/08/23 17:12:44;;;;;;;3.47;2.30;;;19.40;92.00;;;;;;4898128;29;20453;-83
2021/08/23 17:15:11;;;;;;;4.70;2.53;;;19.40;92.10;;;;;;4897089;29;20033;-83
2021/08/23 17:17:37;;;;;;;5.05;2.30;;;19.30;92.20;;;;;;4881296;29;20033;-83
2021/08/23 17:20:04;;;;;;;4.95;2.58;;;19.30;92.30;;;;;;4881239;29;20029;-82
2021/08/23 17:22:30;;;;;;;3.90;2.45;;;19.30;92.40;;;;;;4898175;29;20048;-83
2021/08/23 17:24:56;;;;;;;3.80;2.13;;;19.30;92.30;;;;;;4896931;29;20033;-82
2021/08/23 17:27:22;;;;;;;4.65;2.25;;;19.30;92.30;;;;;;4896866;29;20409;-82
2021/08/23 17:29:47;;;;;;;3.28;1.98;;;19.30;92.30;;;;;;4893948;29;20033;-82
2021/08/23 17:32:15;;;;;;;3.42;2.10;;;19.20;92.30;;;;;;4910260;29;20040;-82
2021/08/23 17:34:48;;;;;;;3.42;1.80;;;19.20;92.20;;;;;;4915834;29;20028;-82
2021/08/23 17:37:15;;;;;;;2.67;1.73;;;19.10;92.20;;;;;;4903577;29;20108;-83
2021/08/23 17:39:43;;;;;;;3.50;2.10;;;19.00;92.20;;;;;;4898016;29;20024;-82
2021/08/23 17:42:09;;;;;;;2.13;1.65;;;19.00;92.30;;;;;;4896992;29;20049;-83
2021/08/23 17:44:38;;;;;;;1.88;1.30;;;18.90;92.30;;;;;;4898206;29;20029;-84
2021/08/23 17:47:08;;;;;;;4.70;1.58;;;18.80;92.30;;;;;;4896864;29;20028;-84
2021/08/23 17:49:37;;;;;;;1.75;1.35;;;18.70;92.30;;;;;;4897073;29;20048;-84
2021/08/23 17:52:06;;;;;;;1.98;1.52;;;18.70;92.40;;;;;;4896860;29;20418;-85
2021/08/23 17:54:35;;;;;;;4.50;2.22;;;18.60;92.40;;;;;;4881299;29;20056;-83
2021/08/23 17:57:04;;;;;;;7.20;2.28;;;18.60;92.50;;;;;;4881524;29;20500;-86
2021/08/23 17:59:30;;;;;;;2.38;1.40;;;18.60;92.70;;;;;;4899413;29;20029;-85
2021/08/23 18:01:57;;;;;;;3.75;1.65;;;18.60;92.70;;;;;;4885479;29;20492;-86
2021/08/23 18:04:23;;;;;;;2.40;1.55;;;18.50;92.60;;;;;;4875304;29;20029;-87
2021/08/23 18:06:51;;;;;;;2.10;1.60;;;18.50;92.60;;;;;;4889585;29;20563;-87
2021/08/23 18:09:16;;;;;;;2.00;1.60;;;18.40;92.60;;;;;;4886381;29;20139;-86
2021/08/23 18:11:46;;;;;;;1.60;1.50;;;18.40;92.80;;;;;;4900648;29;20488;-87
2021/08/23 18:14:14;;;;;;;1.92;1.40;;;18.30;92.50;;;;;;4884651;29;20044;-87
2021/08/23 18:16:40;;;;;;;12.90;7.57;;;18.30;92.50;;;;;;4884183;29;20040;-84
2021/08/23 18:19:06;;;;;;;1.63;1.50;;;18.30;92.50;;;;;;4884780;29;20041;-83
2021/08/23 18:21:32;;;;;;;2.78;1.80;;;18.20;92.50;;;;;;4901295;29;20366;-84
2021/08/23 18:23:58;;;;;;;2.13;1.52;;;18.10;92.50;;;;;;4899728;29;20044;-84
2021/08/23 18:26:24;;;;;;;2.50;1.70;;;18.10;92.50;;;;;;4900767;29;20028;-84
2021/08/23 18:28:50;;;;;;;1.98;1.63;;;18.00;92.50;;;;;;4900978;29;20046;-84
2021/08/23 18:31:16;;;;;;;2.10;1.63;;;18.00;92.50;;;;;;4900058;29;20120;-84
2021/08/23 18:33:45;;;;;;;2.75;1.55;;;18.00;92.60;;;;;;4899673;29;20082;-84
2021/08/23 18:36:11;;;;;;;1.63;1.50;;;17.90;92.60;;;;;;4869002;29;20057;-83
2021/08/23 18:38:36;;;;;;;2.58;1.70;;;17.90;92.60;;;;;;4899835;29;20489;-83
2021/08/23 18:41:05;;;;;;;2.38;1.60;;;17.80;92.60;;;;;;4900859;29;20124;-83
2021/08/23 18:43:33;;;;;;;2.78;1.50;;;17.90;92.70;;;;;;4901129;29;20029;-83
2021/08/23 18:46:01;;;;;;;3.03;1.58;;;17.90;92.70;;;;;;4916315;29;20043;-84
2021/08/23 18:48:30;;;;;;;4.00;1.70;;;17.80;92.60;;;;;;4907256;29;20158;-83
2021/08/23 18:50:56;;;;;;;2.25;1.70;;;17.80;92.50;;;;;;4901273;29;20057;-85
2021/08/23 18:53:22;;;;;;;1.60;1.50;;;17.70;92.40;;;;;;4899643;29;20068;-84
2021/08/23 18:55:49;;;;;;;2.95;1.80;;;17.70;92.50;;;;;;4868505;29;20052;-84
2021/08/23 18:58:15;;;;;;;3.25;1.80;;;17.60;92.50;;;;;;4899264;29;20098;-84
2021/08/23 19:00:44;;;;;;;2.15;1.63;;;17.60;92.50;;;;;;4900558;29;20032;-84
2021/08/23 19:03:10;;;;;;;1.98;1.60;;;17.60;92.50;;;;;;4908827;29;20028;-88
2021/08/23 19:05:44;;;;;;;1.83;1.60;;;17.60;92.60;;;;;;4902579;29;20039;-87
2021/08/23 19:08:10;;;;;;;2.03;1.60;;;17.50;92.60;;;;;;4899415;29;20063;-86
2021/08/23 19:10:38;;;;;;;2.78;1.55;;;17.50;92.60;;;;;;4899554;29;20076;-85
2021/08/23 19:13:07;;;;;;;3.03;1.70;;;17.40;92.50;;;;;;4880726;29;20025;-84
2021/08/23 19:15:33;;;;;;;1.92;1.60;;;17.40;92.50;;;;;;4865110;29;20041;-85
2021/08/23 19:17:59;;;;;;;2.08;1.60;;;17.40;92.60;;;;;;4880312;29;20025;-85
2021/08/23 19:20:27;;;;;;;1.75;1.40;;;17.30;92.50;;;;;;4880605;29;20040;-85
2021/08/23 19:22:56;;;;;;;2.00;1.63;;;17.30;92.40;;;;;;4880342;29;20025;-85
2021/08/23 19:25:35;;;;;;;2.60;1.77;;;17.20;92.40;;;;;;4880596;29;20037;-85
2021/08/23 19:28:32;;;;;;;3.55;1.90;;;17.20;92.40;;;;;;4886074;29;20036;-85
2021/08/23 19:31:08;;;;;;;;;;;;;;;;;;;;;
2021/08/23 19:33:39;;;;;;;2.05;1.63;;;17.10;92.50;;;;;;4903370;29;20552;-86
2021/08/23 19:36:09;;;;;;;2.75;1.90;;;17.10;92.50;;;;;;4900361;29;20060;-85
2021/08/23 19:38:37;;;;;;;1.65;1.35;;;17.10;92.80;;;;;;4899082;29;20085;-85
2021/08/23 19:41:06;;;;;;;3.58;1.70;;;17.00;92.50;;;;;;4899529;29;20076;-85
2021/08/23 19:43:40;;;;;;;2.70;1.70;;;17.00;92.50;;;;;;4899593;29;20750;-85
2021/08/23 19:46:07;;;;;;;2.38;1.77;;;17.00;92.50;;;;;;4901047;29;20030;-84
2021/08/23 19:48:35;;;;;;;2.28;1.50;;;17.00;92.50;;;;;;4899656;29;20061;-86
2021/08/23 19:51:06;;;;;;;3.22;1.40;;;17.00;92.50;;;;;;4899176;29;20025;-84
2021/08/23 19:53:37;;;;;;;3.42;1.50;;;16.90;92.50;;;;;;4899651;29;20024;-86
2021/08/23 19:56:04;;;;;;;2.10;1.30;;;16.90;92.50;;;;;;4898991;29;20059;-86
2021/08/23 19:58:34;;;;;;;2.17;1.23;;;16.90;92.60;;;;;;4898672;29;20072;-85
2021/08/23 20:01:00;;;;;;;2.65;1.63;;;16.90;92.60;;;;;;4899521;29;20033;-85
2021/08/23 20:03:25;;;;;;;3.10;1.52;;;16.80;92.60;;;;;;4882941;29;20488;-85
2021/08/23 20:05:51;;;;;;;3.17;1.70;;;16.80;92.60;;;;;;4898586;29;20556;-84
2021/08/23 20:08:20;;;;;;;5.70;1.65;;;16.90;92.60;;;;;;4901945;29;20028;-84
2021/08/23 20:10:46;;;;;;;3.60;1.65;;;16.90;92.70;;;;;;4884280;29;20113;-83
2021/08/23 20:13:16;;;;;;;2.10;1.60;;;16.90;92.60;;;;;;4888464;29;20504;-85
2021/08/23 20:15:43;;;;;;;4.35;1.77;;;16.90;92.60;;;;;;4901736;29;20469;-84
2021/08/23 20:18:13;;;;;;;2.17;1.63;;;16.90;92.60;;;;;;4887786;29;20044;-84
2021/08/23 20:21:04;;;;;;;2.17;1.58;;;16.90;92.60;;;;;;4911832;29;20468;-84